sim
Sign-in with your pilot id or email,
or register
Callsign
Passwort

Schedule Details

Flight Number: DLH2309
Departure: Amsterdam Schiphol Airport (EHAM) at 18:55
Arrival: Munich Airport (EDDM) at 20:15
Route: Lufthansa Passenger Schedule. Enter filed route here before submitting Pirep.

Weather Information
Getting current METAR information for EHAM 190125Z 05009KT CAVOK 12/07 Q1021 NOSIG
Getting current METAR information for EDDM 190120Z VRB02KT CAVOK 07/04 Q1021 NOSIG

Schedule Frequency

Route Map